Time;durP1;ratioP1;P1;durP2;ratioP2;P2;SDS_P1;SDS_P2;PMS_P1;PMS_P2;Temp;Humidity;BMP_temperature;BMP_pressure;BME280_temperature;BME280_humidity;BME280_pressure;Samples;Min_cycle;Max_cycle;Signal;HPM_P1;HPM_P2
2023/01/03 00:01:34;;;;;;;35.60;13.73;;;;;;;;;;6248852;28;20120;-66
2023/01/03 00:04:35;;;;;;;31.92;13.02;;;;;;;;;;6242386;28;20504;-64
2023/01/03 00:07:36;;;;;;;30.02;12.55;;;;;;;;;;6245640;28;20059;-67
2023/01/03 00:10:37;;;;;;;35.80;14.10;;;;;;;;;;6256295;28;20049;-64
2023/01/03 00:13:38;;;;;;;31.52;13.32;;;;;;;;;;6245843;28;20041;-65
2023/01/03 00:16:39;;;;;;;36.17;14.25;;;;;;;;;;6238235;28;20548;-67
2023/01/03 00:19:41;;;;;;;35.50;14.45;;;;;;;;;;6243649;28;20586;-63
2023/01/03 00:22:42;;;;;;;33.78;14.52;;;;;;;;;;6251905;28;20496;-64
2023/01/03 00:25:42;;;;;;;38.50;14.45;;;;;;;;;;6265099;28;20060;-63
2023/01/03 00:28:43;;;;;;;39.65;16.08;;;;;;;;;;6243999;28;20049;-64
2023/01/03 00:31:44;;;;;;;36.78;15.65;;;;;;;;;;6257597;28;20553;-64
2023/01/03 00:34:45;;;;;;;32.55;14.57;;;;;;;;;;6257571;28;20046;-64
2023/01/03 00:37:47;;;;;;;38.35;16.35;;;;;;;;;;6242437;28;20139;-64
2023/01/03 00:40:47;;;;;;;38.67;16.10;;;;;;;;;;6242466;28;20966;-64
2023/01/03 00:43:49;;;;;;;35.33;15.18;;;;;;;;;;6244761;28;20065;-64
2023/01/03 00:46:50;;;;;;;34.03;14.40;;;;;;;;;;6243647;28;20084;-63
2023/01/03 00:49:50;;;;;;;38.20;15.40;;;;;;;;;;6246592;28;20303;-66
2023/01/03 00:52:51;;;;;;;36.15;15.27;;;;;;;;;;6247425;28;20049;-63
2023/01/03 00:55:51;;;;;;;42.50;16.85;;;;;;;;;;6245919;28;20049;-64
2023/01/03 00:58:52;;;;;;;38.75;15.85;;;;;;;;;;6243846;28;20053;-64
2023/01/03 01:01:55;;;;;;;41.55;15.43;;;;;;;;;;6248135;28;20495;-63
2023/01/03 01:04:56;;;;;;;41.58;16.63;;;;;;;;;;6252696;28;20045;-64
2023/01/03 01:07:57;;;;;;;34.08;15.43;;;;;;;;;;6265331;28;20464;-63
2023/01/03 01:11:00;;;;;;;39.15;16.38;;;;;;;;;;6254896;28;20512;-64
2023/01/03 01:14:01;;;;;;;37.75;14.98;;;;;;;;;;6242083;28;20041;-64
2023/01/03 01:17:05;;;;;;;40.83;15.80;;;;;;;;;;6246878;28;20048;-64
2023/01/03 01:20:06;;;;;;;39.60;18.42;;;;;;;;;;6240538;28;20154;-64
2023/01/03 01:23:07;;;;;;;37.00;15.82;;;;;;;;;;6244065;28;20484;-64
2023/01/03 01:26:12;;;;;;;39.33;18.15;;;;;;;;;;6243150;28;20064;-63
2023/01/03 01:29:14;;;;;;;36.65;14.73;;;;;;;;;;6243033;28;20041;-64
2023/01/03 01:32:14;;;;;;;39.03;17.38;;;;;;;;;;6238866;28;20068;-64
2023/01/03 01:35:15;;;;;;;39.22;16.50;;;;;;;;;;6242823;28;20061;-64
2023/01/03 01:38:16;;;;;;;41.00;17.52;;;;;;;;;;6243715;28;20053;-63
2023/01/03 01:44:36;;;;;;;50.85;24.60;;;;;;;;;;6244002;28;20491;-63
2023/01/03 01:44:53;;;;;;;41.13;16.45;;;;;;;;;;6240527;28;20057;-63
2023/01/03 01:47:59;;;;;;;39.55;15.95;;;;;;;;;;6241064;28;20449;-64
2023/01/03 01:50:59;;;;;;;40.13;17.95;;;;;;;;;;6241386;28;20480;-64
2023/01/03 01:54:02;;;;;;;38.85;15.88;;;;;;;;;;6246536;28;20126;-63
2023/01/03 01:57:02;;;;;;;40.20;17.45;;;;;;;;;;6244338;28;20049;-64
2023/01/03 02:00:06;;;;;;;40.17;16.13;;;;;;;;;;6243654;28;20045;-63
2023/01/03 02:03:07;;;;;;;37.72;15.73;;;;;;;;;;6240466;28;20088;-63
2023/01/03 02:06:11;;;;;;;39.55;16.80;;;;;;;;;;6242015;28;20041;-64
2023/01/03 02:09:12;;;;;;;35.95;14.90;;;;;;;;;;6242154;28;20073;-63
2023/01/03 02:16:07;;;;;;;44.47;15.93;;;;;;;;;;6246250;28;20404;-64
2023/01/03 02:19:40;;;;;;;42.38;16.58;;;;;;;;;;6248367;28;20041;-63
2023/01/03 02:23:05;;;;;;;40.58;15.30;;;;;;;;;;6243507;28;20128;-63
2023/01/03 02:26:40;;;;;;;38.55;15.27;;;;;;;;;;6249259;28;20113;-64
2023/01/03 02:30:26;;;;;;;34.47;14.32;;;;;;;;;;6244396;28;20053;-64
2023/01/03 02:33:30;;;;;;;31.00;13.40;;;;;;;;;;6235297;28;20045;-64
2023/01/03 02:36:36;;;;;;;31.23;13.23;;;;;;;;;;6247773;28;20058;-64
2023/01/03 02:39:44;;;;;;;43.15;21.13;;;;;;;;;;6244598;28;20053;-64
2023/01/03 02:43:04;;;;;;;30.73;12.57;;;;;;;;;;6246851;28;20084;-64
2023/01/03 02:46:08;;;;;;;30.65;13.10;;;;;;;;;;6245808;28;20156;-64
2023/01/03 02:49:19;;;;;;;30.45;12.10;;;;;;;;;;6246704;28;20045;-64
2023/01/03 02:52:26;;;;;;;30.05;12.65;;;;;;;;;;6246893;28;20052;-64
2023/01/03 02:55:30;;;;;;;32.58;14.27;;;;;;;;;;6244537;28;20052;-63
2023/01/03 02:58:34;;;;;;;28.48;12.25;;;;;;;;;;6245727;28;20056;-64
2023/01/03 03:01:43;;;;;;;29.65;13.32;;;;;;;;;;6245475;28;20484;-64
2023/01/03 03:04:45;;;;;;;28.23;12.48;;;;;;;;;;6256964;28;20056;-63
2023/01/03 03:07:46;;;;;;;30.95;12.90;;;;;;;;;;6259714;28;20415;-66
2023/01/03 03:14:19;;;;;;;34.67;12.60;;;;;;;;;;6249071;28;20070;-64
2023/01/03 03:17:27;;;;;;;31.77;13.40;;;;;;;;;;6243826;28;20107;-64
2023/01/03 03:30:38;;;;;;;30.23;12.63;;;;;;;;;;6246494;28;20106;-65
2023/01/03 03:33:58;;;;;;;28.75;12.80;;;;;;;;;;6242702;28;20710;-65
2023/01/03 03:37:06;;;;;;;33.78;13.82;;;;;;;;;;6243096;28;20408;-65
2023/01/03 03:47:09;;;;;;;29.27;11.83;;;;;;;;;;6260170;28;20057;-65
2023/01/03 03:50:18;;;;;;;33.03;13.10;;;;;;;;;;6259574;28;20045;-66
2023/01/03 03:53:24;;;;;;;33.33;13.48;;;;;;;;;;6249259;28;20464;-66
2023/01/03 03:56:30;;;;;;;30.58;12.45;;;;;;;;;;6268036;28;20055;-65
2023/01/03 03:59:32;;;;;;;34.05;15.00;;;;;;;;;;6256840;28;20086;-65
2023/01/03 04:02:34;;;;;;;29.48;12.73;;;;;;;;;;6246463;28;20124;-64
2023/01/03 04:05:39;;;;;;;33.05;13.02;;;;;;;;;;6246967;28;20052;-64
2023/01/03 04:08:41;;;;;;;29.23;13.55;;;;;;;;;;6240902;28;20049;-64
2023/01/03 04:11:41;;;;;;;32.05;13.20;;;;;;;;;;6241382;28;20048;-64
2023/01/03 04:14:42;;;;;;;30.52;13.23;;;;;;;;;;6250983;28;20041;-65
2023/01/03 04:17:43;;;;;;;35.45;13.00;;;;;;;;;;6267761;28;20049;-65
2023/01/03 04:20:43;;;;;;;33.67;14.07;;;;;;;;;;6249866;28;20045;-65
2023/01/03 04:23:44;;;;;;;32.72;12.60;;;;;;;;;;6248639;28;20548;-65
2023/01/03 04:26:45;;;;;;;33.70;13.38;;;;;;;;;;6242918;28;20046;-65
2023/01/03 04:29:45;;;;;;;28.13;12.90;;;;;;;;;;6248045;28;20041;-66
2023/01/03 04:32:46;;;;;;;31.92;12.68;;;;;;;;;;6267237;28;20045;-65
2023/01/03 04:35:46;;;;;;;33.35;13.57;;;;;;;;;;6242544;28;20046;-65
2023/01/03 04:38:47;;;;;;;32.95;13.00;;;;;;;;;;6245311;28;20045;-66
2023/01/03 04:41:48;;;;;;;32.28;13.73;;;;;;;;;;6247470;28;20056;-65
2023/01/03 04:44:49;;;;;;;25.92;11.90;;;;;;;;;;6244894;28;20900;-65
2023/01/03 04:47:51;;;;;;;32.45;12.68;;;;;;;;;;6246916;28;20045;-65
2023/01/03 04:50:57;;;;;;;34.38;13.13;;;;;;;;;;6258042;28;20199;-63
2023/01/03 04:53:57;;;;;;;28.13;12.57;;;;;;;;;;6244191;28;20469;-65
2023/01/03 04:56:58;;;;;;;30.45;13.52;;;;;;;;;;6241490;28;20081;-65
2023/01/03 05:00:00;;;;;;;34.50;14.63;;;;;;;;;;6246715;28;20037;-65
2023/01/03 05:03:00;;;;;;;29.60;12.50;;;;;;;;;;6241899;28;20060;-65
2023/01/03 05:06:04;;;;;;;33.10;13.00;;;;;;;;;;6239341;28;20041;-66
2023/01/03 05:09:04;;;;;;;32.13;13.50;;;;;;;;;;6239188;28;20049;-66
2023/01/03 05:12:05;;;;;;;33.20;12.65;;;;;;;;;;6242320;28;20889;-65
2023/01/03 05:15:06;;;;;;;29.95;12.77;;;;;;;;;;6260810;28;20182;-65
2023/01/03 05:18:07;;;;;;;27.98;11.73;;;;;;;;;;6253983;28;20396;-66
2023/01/03 05:27:56;;;;;;;30.30;12.45;;;;;;;;;;6245178;28;20045;-66
2023/01/03 05:30:57;;;;;;;30.63;13.35;;;;;;;;;;6259919;28;20044;-67
2023/01/03 05:33:59;;;;;;;34.17;14.18;;;;;;;;;;6260310;28;20053;-66
2023/01/03 05:36:59;;;;;;;31.90;12.95;;;;;;;;;;6258371;28;20052;-66
2023/01/03 05:40:00;;;;;;;36.55;14.93;;;;;;;;;;6251254;28;20132;-65
2023/01/03 05:43:00;;;;;;;37.42;13.85;;;;;;;;;;6243357;28;20064;-66
2023/01/03 05:46:01;;;;;;;34.53;13.75;;;;;;;;;;6242168;28;20076;-67
2023/01/03 05:49:01;;;;;;;37.42;14.35;;;;;;;;;;6247955;28;20049;-64
2023/01/03 05:52:03;;;;;;;38.95;15.52;;;;;;;;;;6239993;28;20049;-66
2023/01/03 05:55:04;;;;;;;36.47;15.10;;;;;;;;;;6239575;28;20418;-66
2023/01/03 05:58:05;;;;;;;41.78;17.00;;;;;;;;;;6256809;28;20407;-67
2023/01/03 06:01:10;;;;;;;39.90;16.60;;;;;;;;;;6253002;28;20133;-68
2023/01/03 06:04:11;;;;;;;37.25;15.18;;;;;;;;;;6257799;28;20468;-66
2023/01/03 06:07:11;;;;;;;41.03;16.58;;;;;;;;;;6254595;28;20037;-66
2023/01/03 06:10:12;;;;;;;35.28;16.13;;;;;;;;;;6246409;28;20658;-66
2023/01/03 06:13:14;;;;;;;36.20;15.30;;;;;;;;;;6264986;28;20053;-67
2023/01/03 06:19:35;;;;;;;38.42;16.52;;;;;;;;;;6240938;28;20155;-66
2023/01/03 06:22:36;;;;;;;38.30;16.08;;;;;;;;;;6240349;28;20058;-67
2023/01/03 06:25:37;;;;;;;35.22;16.10;;;;;;;;;;6241343;28;20056;-66
2023/01/03 06:28:37;;;;;;;40.63;15.05;;;;;;;;;;6242414;28;20119;-64
2023/01/03 06:31:38;;;;;;;37.67;15.77;;;;;;;;;;6239825;28;20046;-64
2023/01/03 06:34:39;;;;;;;36.13;15.27;;;;;;;;;;6243644;28;20053;-64
2023/01/03 06:37:40;;;;;;;38.35;16.00;;;;;;;;;;6262886;28;20518;-64
2023/01/03 06:40:47;;;;;;;34.50;14.27;;;;;;;;;;6250893;28;20528;-64
2023/01/03 06:43:48;;;;;;;35.55;16.73;;;;;;;;;;6243597;28;20052;-64
2023/01/03 06:53:38;;;;;;;37.45;15.25;;;;;;;;;;6238512;28;20140;-64
2023/01/03 06:56:38;;;;;;;37.20;15.80;;;;;;;;;;6251844;28;20080;-64
2023/01/03 06:59:39;;;;;;;37.58;16.70;;;;;;;;;;6268699;28;20629;-64
2023/01/03 07:02:39;;;;;;;35.80;16.02;;;;;;;;;;6254300;28;20049;-64
2023/01/03 07:05:40;;;;;;;41.95;14.52;;;;;;;;;;6263728;28;20062;-64
2023/01/03 07:08:41;;;;;;;35.92;14.45;;;;;;;;;;6257315;28;20048;-64
2023/01/03 07:11:42;;;;;;;37.28;14.98;;;;;;;;;;6246371;28;20106;-64
2023/01/03 07:14:43;;;;;;;36.08;14.45;;;;;;;;;;6247414;28;20722;-64
2023/01/03 07:17:44;;;;;;;32.35;14.07;;;;;;;;;;6246415;28;20049;-65
2023/01/03 07:20:45;;;;;;;34.28;14.40;;;;;;;;;;6244318;28;20049;-66
2023/01/03 07:23:45;;;;;;;33.80;13.88;;;;;;;;;;6246161;28;20052;-66
2023/01/03 07:26:46;;;;;;;33.03;13.93;;;;;;;;;;6245357;28;20045;-65
2023/01/03 07:29:46;;;;;;;30.55;12.00;;;;;;;;;;6249372;28;20191;-64
2023/01/03 07:32:47;;;;;;;24.98;12.07;;;;;;;;;;6247223;28;20064;-66
2023/01/03 07:35:48;;;;;;;29.33;11.65;;;;;;;;;;6266809;28;20045;-66
2023/01/03 07:38:48;;;;;;;31.00;13.23;;;;;;;;;;6266571;28;20438;-65
2023/01/03 07:45:08;;;;;;;24.13;10.63;;;;;;;;;;6259851;28;20043;-65
2023/01/03 07:48:10;;;;;;;22.05;9.70;;;;;;;;;;6250260;28;20045;-68
2023/01/03 07:51:12;;;;;;;20.98;9.82;;;;;;;;;;6253544;28;20044;-66
2023/01/03 07:54:12;;;;;;;22.95;9.35;;;;;;;;;;6257450;28;20053;-65
2023/01/03 07:57:13;;;;;;;23.52;9.95;;;;;;;;;;6251510;28;20068;-65
2023/01/03 08:00:14;;;;;;;21.67;9.75;;;;;;;;;;6246723;28;20037;-65
2023/01/03 08:03:15;;;;;;;24.13;9.95;;;;;;;;;;6243504;28;20057;-65
2023/01/03 08:06:18;;;;;;;21.73;10.20;;;;;;;;;;6240253;28;20123;-66
2023/01/03 08:15:57;;;;;;;25.75;9.73;;;;;;;;;;6243015;28;20046;-66
2023/01/03 08:18:58;;;;;;;20.67;8.80;;;;;;;;;;6244102;28;20571;-66
2023/01/03 08:21:58;;;;;;;23.55;9.93;;;;;;;;;;6244472;28;20546;-66
2023/01/03 08:24:59;;;;;;;22.67;9.27;;;;;;;;;;6242003;28;20041;-66
2023/01/03 08:28:00;;;;;;;20.58;9.32;;;;;;;;;;6242071;28;20134;-65
2023/01/03 08:31:06;;;;;;;24.33;10.17;;;;;;;;;;6247909;28;20132;-66
2023/01/03 08:34:10;;;;;;;25.20;10.30;;;;;;;;;;6257206;28;20454;-67
2023/01/03 08:37:13;;;;;;;24.45;10.27;;;;;;;;;;6282049;28;20427;-66
2023/01/03 08:40:16;;;;;;;23.17;9.38;;;;;;;;;;6268166;28;20496;-67
2023/01/03 08:43:17;;;;;;;20.55;8.98;;;;;;;;;;6264421;28;20048;-66
2023/01/03 08:46:19;;;;;;;21.75;9.95;;;;;;;;;;6246028;28;20045;-67
2023/01/03 08:49:20;;;;;;;20.38;9.20;;;;;;;;;;6241467;28;20065;-66
2023/01/03 08:52:21;;;;;;;22.40;9.75;;;;;;;;;;6249690;28;20053;-66
2023/01/03 08:55:22;;;;;;;22.15;9.75;;;;;;;;;;6241335;28;20048;-66
2023/01/03 08:58:22;;;;;;;22.00;9.77;;;;;;;;;;6240619;28;20385;-66
2023/01/03 09:01:25;;;;;;;24.83;10.48;;;;;;;;;;6243507;28;20090;-66
2023/01/03 09:04:26;;;;;;;24.08;10.10;;;;;;;;;;6240147;28;20030;-66
2023/01/03 09:07:27;;;;;;;23.98;10.48;;;;;;;;;;6243559;28;20041;-67
2023/01/03 09:10:28;;;;;;;24.17;9.75;;;;;;;;;;6241463;28;20152;-66
2023/01/03 09:13:29;;;;;;;26.27;10.50;;;;;;;;;;6240870;28;20052;-67
2023/01/03 09:16:29;;;;;;;24.17;10.60;;;;;;;;;;6243461;28;20041;-66
2023/01/03 09:19:30;;;;;;;22.65;10.07;;;;;;;;;;6240114;28;20151;-66
2023/01/03 09:22:31;;;;;;;24.77;10.98;;;;;;;;;;6239028;28;20139;-66
2023/01/03 09:25:32;;;;;;;24.55;10.07;;;;;;;;;;6244326;28;20049;-66
2023/01/03 09:28:33;;;;;;;24.67;10.32;;;;;;;;;;6236538;28;20034;-67
2023/01/03 09:31:35;;;;;;;17.00;7.63;;;;;;;;;;6243257;28;20045;-67
2023/01/03 09:34:36;;;;;;;17.42;7.57;;;;;;;;;;6255968;28;20075;-67
2023/01/03 09:37:37;;;;;;;20.02;7.68;;;;;;;;;;6241913;28;20042;-66
2023/01/03 09:40:40;;;;;;;16.77;7.10;;;;;;;;;;6241470;28;20045;-66
2023/01/03 09:43:44;;;;;;;15.68;6.90;;;;;;;;;;6242781;28;20054;-66
2023/01/03 09:46:45;;;;;;;19.02;7.45;;;;;;;;;;6250379;28;20095;-67
2023/01/03 09:49:46;;;;;;;17.38;7.40;;;;;;;;;;6243666;28;20045;-67
2023/01/03 10:06:49;;;;;;;11.15;4.93;;;;;;;;;;6242085;28;20056;-64
2023/01/03 10:09:59;;;;;;;14.13;5.85;;;;;;;;;;6237422;28;20566;-67
2023/01/03 10:13:37;;;;;;;13.05;5.68;;;;;;;;;;6237993;28;20555;-67
2023/01/03 10:16:57;;;;;;;9.88;4.75;;;;;;;;;;6241458;28;20060;-67
2023/01/03 10:20:16;;;;;;;12.88;5.68;;;;;;;;;;6258176;28;20056;-67
2023/01/03 10:23:17;;;;;;;10.57;4.82;;;;;;;;;;6230467;28;20071;-66
2023/01/03 10:26:18;;;;;;;12.55;5.57;;;;;;;;;;6239787;28;20103;-66
2023/01/03 10:29:19;;;;;;;11.70;5.75;;;;;;;;;;6240739;28;20165;-71
2023/01/03 10:32:48;;;;;;;13.50;5.30;;;;;;;;;;6243328;28;20500;-67
2023/01/03 10:35:50;;;;;;;10.90;4.95;;;;;;;;;;6267980;28;20136;-67
2023/01/03 10:39:07;;;;;;;13.68;5.80;;;;;;;;;;6241663;28;20090;-67
2023/01/03 10:42:16;;;;;;;16.08;6.63;;;;;;;;;;6246454;28;20045;-67
2023/01/03 10:45:19;;;;;;;14.38;5.57;;;;;;;;;;6248071;28;20511;-67
2023/01/03 10:48:21;;;;;;;11.85;5.75;;;;;;;;;;6254239;28;20556;-66
2023/01/03 10:51:26;;;;;;;13.38;5.32;;;;;;;;;;6237753;28;20052;-67
2023/01/03 10:54:29;;;;;;;14.65;7.25;;;;;;;;;;6243733;28;20098;-67
2023/01/03 10:57:40;;;;;;;16.27;7.75;;;;;;;;;;6241728;28;20048;-67
2023/01/03 11:00:42;;;;;;;16.40;7.88;;;;;;;;;;6244301;28;20053;-67
2023/01/03 11:03:43;;;;;;;17.67;7.93;;;;;;;;;;6254629;28;20052;-69
2023/01/03 11:07:07;;;;;;;21.25;8.40;;;;;;;;;;6247331;28;20402;-67
2023/01/03 11:10:15;;;;;;;22.15;8.45;;;;;;;;;;6246191;28;20051;-67
2023/01/03 11:13:40;;;;;;;18.50;9.13;;;;;;;;;;6245027;28;20076;-67
2023/01/03 11:16:40;;;;;;;18.73;9.65;;;;;;;;;;6245663;28;20549;-67
2023/01/03 11:19:41;;;;;;;20.92;9.50;;;;;;;;;;6245879;28;20053;-67
2023/01/03 11:22:48;;;;;;;20.58;9.38;;;;;;;;;;6246075;28;20059;-67
2023/01/03 11:26:16;;;;;;;19.40;9.35;;;;;;;;;;6241555;28;20074;-67
2023/01/03 11:29:50;;;;;;;18.55;8.13;;;;;;;;;;6245132;28;21765;-67
2023/01/03 11:33:15;;;;;;;19.05;8.70;;;;;;;;;;6245568;28;20049;-68
2023/01/03 11:36:22;;;;;;;16.75;7.97;;;;;;;;;;6245216;28;20042;-67
2023/01/03 11:39:39;;;;;;;19.58;7.95;;;;;;;;;;6246120;28;20114;-68
2023/01/03 11:42:56;;;;;;;22.55;8.65;;;;;;;;;;6244433;28;20045;-67
2023/01/03 11:46:19;;;;;;;18.10;7.80;;;;;;;;;;6240891;28;20041;-67
2023/01/03 11:49:45;;;;;;;14.88;6.30;;;;;;;;;;6244964;28;20720;-68
2023/01/03 11:52:56;;;;;;;17.65;6.82;;;;;;;;;;6236325;28;20510;-68
2023/01/03 11:56:15;;;;;;;14.73;6.07;;;;;;;;;;6247131;28;20045;-68
2023/01/03 11:59:50;;;;;;;14.15;6.32;;;;;;;;;;6261017;28;20045;-70
2023/01/03 12:03:07;;;;;;;11.57;5.18;;;;;;;;;;6261576;28;20052;-68
2023/01/03 12:06:20;;;;;;;12.73;5.07;;;;;;;;;;6247151;28;20475;-68
2023/01/03 12:09:41;;;;;;;10.52;5.05;;;;;;;;;;6259143;28;20052;-68
2023/01/03 12:13:12;;;;;;;10.40;4.03;;;;;;;;;;6264278;28;20076;-72
2023/01/03 12:16:38;;;;;;;9.50;4.55;;;;;;;;;;6262790;28;20513;-68
2023/01/03 12:19:53;;;;;;;8.35;3.97;;;;;;;;;;6247023;28;20053;-69
2023/01/03 12:23:02;;;;;;;9.02;4.20;;;;;;;;;;6227055;28;20053;-67
2023/01/03 12:26:07;;;;;;;9.95;3.90;;;;;;;;;;6232167;28;20041;-66
2023/01/03 12:29:15;;;;;;;9.63;4.30;;;;;;;;;;6233045;28;20046;-67
2023/01/03 12:32:30;;;;;;;12.70;4.38;;;;;;;;;;6232927;28;20059;-68
2023/01/03 12:35:42;;;;;;;10.57;4.47;;;;;;;;;;6232472;28;20061;-68
2023/01/03 12:39:08;;;;;;;7.22;3.72;;;;;;;;;;6234778;28;20559;-67
2023/01/03 12:42:22;;;;;;;7.78;3.40;;;;;;;;;;6228647;28;20495;-68
2023/01/03 12:45:47;;;;;;;6.75;3.22;;;;;;;;;;6234380;28;20449;-67
2023/01/03 12:48:57;;;;;;;8.73;4.13;;;;;;;;;;6233350;28;20049;-67
2023/01/03 12:51:58;;;;;;;10.02;4.32;;;;;;;;;;6232161;28;20041;-67
2023/01/03 12:55:17;;;;;;;10.10;4.50;;;;;;;;;;6233179;28;20045;-66
2023/01/03 12:58:32;;;;;;;8.43;4.38;;;;;;;;;;6233988;28;20144;-68
2023/01/03 13:01:39;;;;;;;8.20;3.90;;;;;;;;;;6232673;28;20535;-67
2023/01/03 13:04:42;;;;;;;10.88;4.70;;;;;;;;;;6233221;28;20419;-66
2023/01/03 13:07:50;;;;;;;9.55;4.68;;;;;;;;;;6234616;28;20053;-66
2023/01/03 13:10:53;;;;;;;12.75;5.78;;;;;;;;;;6231234;28;20056;-67
2023/01/03 13:14:01;;;;;;;12.10;5.80;;;;;;;;;;6227541;28;20498;-67
2023/01/03 13:17:14;;;;;;;14.05;6.07;;;;;;;;;;6228019;28;20442;-66
2023/01/03 13:20:35;;;;;;;14.40;6.15;;;;;;;;;;6227109;28;20492;-66
2023/01/03 13:23:56;;;;;;;13.77;5.75;;;;;;;;;;6224854;28;20427;-66
2023/01/03 13:27:15;;;;;;;14.32;4.80;;;;;;;;;;6230215;28;20037;-67
2023/01/03 13:30:30;;;;;;;12.48;4.95;;;;;;;;;;6233428;28;20050;-67
2023/01/03 13:33:52;;;;;;;11.98;5.25;;;;;;;;;;6221534;28;20169;-68
2023/01/03 13:37:05;;;;;;;12.43;6.18;;;;;;;;;;6226298;28;20057;-67
2023/01/03 13:40:12;;;;;;;12.30;5.03;;;;;;;;;;6223383;28;20452;-67
2023/01/03 13:43:16;;;;;;;14.82;6.30;;;;;;;;;;6224941;28;20096;-66
2023/01/03 13:46:24;;;;;;;13.27;5.18;;;;;;;;;;6227395;28;20061;-67
2023/01/03 13:49:27;;;;;;;12.48;6.03;;;;;;;;;;6225709;28;20133;-67
2023/01/03 13:52:37;;;;;;;14.48;6.90;;;;;;;;;;6220970;28;20045;-66
2023/01/03 13:55:46;;;;;;;18.27;6.55;;;;;;;;;;6226814;28;20053;-66
2023/01/03 13:58:50;;;;;;;17.98;6.32;;;;;;;;;;6223126;28;20055;-67
2023/01/03 14:02:20;;;;;;;12.73;6.03;;;;;;;;;;6223073;28;20126;-66
2023/01/03 14:05:46;;;;;;;15.77;6.95;;;;;;;;;;6225091;28;20049;-66
2023/01/03 14:09:25;;;;;;;14.98;6.00;;;;;;;;;;6224595;28;20142;-66
2023/01/03 14:12:42;;;;;;;12.57;5.93;;;;;;;;;;6220524;28;20452;-68
2023/01/03 14:15:45;;;;;;;13.35;5.80;;;;;;;;;;6233508;28;20056;-69
2023/01/03 14:19:11;;;;;;;17.65;6.22;;;;;;;;;;6229939;28;20052;-68
2023/01/03 14:22:18;;;;;;;14.20;5.03;;;;;;;;;;6228442;28;20049;-68
2023/01/03 14:25:36;;;;;;;11.20;5.20;;;;;;;;;;6232118;28;20054;-68
2023/01/03 14:28:38;;;;;;;13.55;5.20;;;;;;;;;;6231309;28;20049;-68
2023/01/03 14:31:45;;;;;;;12.98;5.28;;;;;;;;;;6231610;28;20054;-68
2023/01/03 14:34:46;;;;;;;12.20;5.28;;;;;;;;;;6232903;28;20057;-69
2023/01/03 14:37:47;;;;;;;11.57;5.78;;;;;;;;;;6233908;28;20393;-68
2023/01/03 14:40:48;;;;;;;12.45;5.82;;;;;;;;;;6229407;28;20135;-68
2023/01/03 14:43:56;;;;;;;12.55;5.60;;;;;;;;;;6222339;28;20049;-68
2023/01/03 14:47:02;;;;;;;14.30;6.22;;;;;;;;;;6224322;28;20045;-68
2023/01/03 14:50:05;;;;;;;15.38;6.82;;;;;;;;;;6228359;28;20046;-68
2023/01/03 14:53:09;;;;;;;17.25;7.85;;;;;;;;;;6225232;28;20702;-69
2023/01/03 14:56:10;;;;;;;19.30;7.65;;;;;;;;;;6223671;28;20045;-68
2023/01/03 14:59:20;;;;;;;17.40;7.50;;;;;;;;;;6224643;28;20053;-68
2023/01/03 15:02:21;;;;;;;19.40;7.70;;;;;;;;;;6226684;28;20053;-68
2023/01/03 15:05:37;;;;;;;15.82;7.47;;;;;;;;;;6224940;28;20072;-68
2023/01/03 15:08:42;;;;;;;17.13;7.93;;;;;;;;;;6222399;28;20658;-68
2023/01/03 15:11:58;;;;;;;20.27;7.82;;;;;;;;;;6221526;28;20052;-68
2023/01/03 15:15:26;;;;;;;22.08;8.60;;;;;;;;;;6221075;28;20046;-68
2023/01/03 15:18:30;;;;;;;18.42;8.65;;;;;;;;;;6230086;28;20055;-69
2023/01/03 15:21:31;;;;;;;22.45;9.30;;;;;;;;;;6226140;28;20053;-68
2023/01/03 15:24:38;;;;;;;21.25;10.05;;;;;;;;;;6229894;28;20140;-68
2023/01/03 15:27:42;;;;;;;22.13;9.18;;;;;;;;;;6229572;28;20072;-68
2023/01/03 15:30:47;;;;;;;21.95;9.27;;;;;;;;;;6230180;28;20058;-68
2023/01/03 15:33:58;;;;;;;22.73;9.32;;;;;;;;;;6228920;28;20061;-68
2023/01/03 15:37:00;;;;;;;18.55;9.55;;;;;;;;;;6229779;28;20132;-69
2023/01/03 15:40:04;;;;;;;22.77;10.52;;;;;;;;;;6234240;28;20103;-68
2023/01/03 15:43:23;;;;;;;25.48;10.27;;;;;;;;;;6230031;28;20192;-68
2023/01/03 15:46:26;;;;;;;23.00;9.13;;;;;;;;;;6249390;28;20107;-68
2023/01/03 15:49:29;;;;;;;21.58;10.30;;;;;;;;;;6233122;28;20045;-68
2023/01/03 15:52:30;;;;;;;23.42;10.25;;;;;;;;;;6232589;28;20049;-68
2023/01/03 15:55:31;;;;;;;23.55;10.43;;;;;;;;;;6228753;28;20054;-68
2023/01/03 15:58:34;;;;;;;23.42;11.13;;;;;;;;;;6233662;28;20064;-69
2023/01/03 16:01:34;;;;;;;25.67;11.48;;;;;;;;;;6233174;28;20530;-68
2023/01/03 16:04:35;;;;;;;33.95;12.75;;;;;;;;;;6236191;28;20049;-63
2023/01/03 16:07:38;;;;;;;30.15;13.18;;;;;;;;;;6232363;28;20072;-69
2023/01/03 16:10:39;;;;;;;32.80;14.20;;;;;;;;;;6234817;28;20122;-67
2023/01/03 16:13:43;;;;;;;28.27;11.77;;;;;;;;;;6233087;28;20045;-67
2023/01/03 16:16:47;;;;;;;27.00;13.45;;;;;;;;;;6234036;28;20049;-65
2023/01/03 16:19:49;;;;;;;32.15;12.48;;;;;;;;;;6234789;28;20060;-63
2023/01/03 16:22:51;;;;;;;29.13;12.25;;;;;;;;;;6232960;28;20057;-63
2023/01/03 16:25:52;;;;;;;23.35;11.13;;;;;;;;;;6233157;28;20431;-69
2023/01/03 16:28:52;;;;;;;33.58;13.30;;;;;;;;;;6231212;28;20045;-64
2023/01/03 16:31:53;;;;;;;31.95;13.50;;;;;;;;;;6231940;28;20076;-63
2023/01/03 16:34:59;;;;;;;29.95;13.10;;;;;;;;;;6234514;28;20071;-65
2023/01/03 16:38:00;;;;;;;27.00;11.40;;;;;;;;;;6235779;28;20168;-66
2023/01/03 16:41:00;;;;;;;25.02;12.20;;;;;;;;;;6236173;28;20076;-66
2023/01/03 16:44:01;;;;;;;26.98;11.80;;;;;;;;;;6230492;28;20057;-65
2023/01/03 16:47:08;;;;;;;26.35;12.18;;;;;;;;;;6234245;28;20099;-66
2023/01/03 16:50:18;;;;;;;31.65;12.15;;;;;;;;;;6230858;28;20060;-69
2023/01/03 16:53:29;;;;;;;29.95;13.15;;;;;;;;;;6232356;28;20075;-68
2023/01/03 16:56:30;;;;;;;31.88;13.30;;;;;;;;;;6233807;28;20805;-67
2023/01/03 16:59:37;;;;;;;30.42;13.07;;;;;;;;;;6233715;28;20052;-67
2023/01/03 17:02:38;;;;;;;36.08;13.93;;;;;;;;;;6230227;28;20054;-66
2023/01/03 17:05:39;;;;;;;30.02;13.68;;;;;;;;;;6230262;28;20415;-65
2023/01/03 17:08:41;;;;;;;31.27;13.73;;;;;;;;;;6229867;28;20387;-64
2023/01/03 17:11:42;;;;;;;27.60;12.48;;;;;;;;;;6228799;28;20061;-66
2023/01/03 17:14:43;;;;;;;33.72;13.82;;;;;;;;;;6232535;28;20049;-69
2023/01/03 17:17:44;;;;;;;35.50;15.05;;;;;;;;;;6234365;28;20172;-67
2023/01/03 17:20:49;;;;;;;35.00;15.10;;;;;;;;;;6232598;28;20050;-67
2023/01/03 17:23:53;;;;;;;35.80;14.48;;;;;;;;;;6232604;28;20075;-67
2023/01/03 17:27:01;;;;;;;37.58;14.80;;;;;;;;;;6233905;28;20068;-66
2023/01/03 17:30:05;;;;;;;38.08;15.50;;;;;;;;;;6233141;28;20052;-64
2023/01/03 17:33:06;;;;;;;39.97;16.27;;;;;;;;;;6231419;28;20132;-62
2023/01/03 17:36:11;;;;;;;37.20;16.63;;;;;;;;;;6231885;28;20131;-62
2023/01/03 17:39:12;;;;;;;48.53;19.30;;;;;;;;;;6232861;28;20130;-63
2023/01/03 17:42:15;;;;;;;49.58;20.98;;;;;;;;;;6245343;28;20053;-62
2023/01/03 17:52:01;;;;;;;47.95;18.60;;;;;;;;;;6231082;28;20061;-62
2023/01/03 17:55:06;;;;;;;48.80;20.63;;;;;;;;;;6232508;28;20077;-63
2023/01/03 17:58:15;;;;;;;52.78;22.73;;;;;;;;;;6231623;28;20474;-64
2023/01/03 18:01:17;;;;;;;71.80;29.20;;;;;;;;;;6232649;28;20052;-61
2023/01/03 18:04:20;;;;;;;60.25;27.60;;;;;;;;;;6230950;28;20060;-62
2023/01/03 18:07:26;;;;;;;64.90;27.70;;;;;;;;;;6233178;28;20641;-62
2023/01/03 18:10:36;;;;;;;74.38;28.73;;;;;;;;;;6233031;28;20397;-61
2023/01/03 18:13:36;;;;;;;76.28;30.75;;;;;;;;;;6230583;28;20102;-63
2023/01/03 18:16:37;;;;;;;80.13;31.95;;;;;;;;;;6232639;28;20054;-63
2023/01/03 18:19:38;;;;;;;116.53;40.05;;;;;;;;;;6232956;28;20061;-62
2023/01/03 18:22:39;;;;;;;90.70;33.53;;;;;;;;;;6230611;28;20403;-62
2023/01/03 18:25:40;;;;;;;102.50;35.70;;;;;;;;;;6232047;28;20494;-62
2023/01/03 18:28:42;;;;;;;106.05;39.53;;;;;;;;;;6233641;28;20136;-64
2023/01/03 18:31:44;;;;;;;258.60;71.68;;;;;;;;;;6230830;28;20057;-63
2023/01/03 18:34:45;;;;;;;158.30;51.97;;;;;;;;;;6232952;28;20420;-64
2023/01/03 18:37:49;;;;;;;114.28;42.88;;;;;;;;;;6232940;28;20084;-63
2023/01/03 18:40:52;;;;;;;135.63;44.17;;;;;;;;;;6231620;28;20052;-62
2023/01/03 18:43:52;;;;;;;;;;;;;;;;;;6229036;28;20062;-62
2023/01/03 18:46:54;;;;;;;118.43;39.75;;;;;;;;;;6232504;28;19933;-61
2023/01/03 18:49:54;;;;;;;111.97;40.55;;;;;;;;;;6232825;28;20144;-61
2023/01/03 18:52:59;;;;;;;111.05;40.13;;;;;;;;;;6233890;28;20492;-61
2023/01/03 18:55:59;;;;;;;128.18;46.13;;;;;;;;;;6236241;28;20506;-63
2023/01/03 18:59:07;;;;;;;124.72;46.17;;;;;;;;;;6236764;28;20223;-63
2023/01/03 19:02:13;;;;;;;124.50;45.33;;;;;;;;;;6217745;28;20054;-62
2023/01/03 19:05:14;;;;;;;107.28;39.22;;;;;;;;;;6236537;28;20053;-63
2023/01/03 19:08:17;;;;;;;95.13;33.53;;;;;;;;;;6234383;28;20057;-62
2023/01/03 19:11:26;;;;;;;97.90;34.85;;;;;;;;;;6236433;28;20111;-65
2023/01/03 19:14:28;;;;;;;82.18;33.13;;;;;;;;;;6233311;28;20140;-64
2023/01/03 19:17:29;;;;;;;92.10;34.33;;;;;;;;;;6235678;28;20128;-63